Time;durP1;ratioP1;P1;durP2;ratioP2;P2;SDS_P1;SDS_P2;PMS_P1;PMS_P2;Temp;Humidity;BMP_temperature;BMP_pressure;BME280_temperature;BME280_humidity;BME280_pressure;Samples;Min_cycle;Max_cycle;Signal;HPM_P1;HPM_P2
2022/11/24 00:00:43;;;;;;;17.45;3.22;;;;;;;6.12;71.99;98939.19;10316683;28;20990;-82
2022/11/24 00:05:45;;;;;;;21.85;3.80;;;;;;;6.20;71.91;98942.22;10323395;28;20108;-81
2022/11/24 00:10:46;;;;;;;15.73;3.30;;;;;;;6.21;71.71;98949.06;10316310;28;20058;-82
2022/11/24 00:15:48;;;;;;;21.13;3.83;;;;;;;6.27;71.85;98946.16;10329728;28;20042;-82
2022/11/24 00:20:53;;;;;;;16.50;3.33;;;;;;;6.35;71.76;98961.28;10315046;28;20093;-81
2022/11/24 00:25:54;;;;;;;16.77;4.00;;;;;;;6.32;71.52;98970.09;10316275;28;20050;-81
2022/11/24 00:30:56;;;;;;;22.10;4.53;;;;;;;6.29;71.81;98967.69;10317055;28;20062;-81
2022/11/24 00:35:59;;;;;;;17.55;3.45;;;;;;;6.34;71.64;98965.66;10314937;28;20086;-81
2022/11/24 00:41:01;;;;;;;19.77;3.72;;;;;;;6.40;71.46;98972.25;10316667;28;20085;-81
2022/11/24 00:46:03;;;;;;;19.73;3.75;;;;;;;6.45;71.16;98974.59;10330761;28;20050;-81
2022/11/24 00:51:08;;;;;;;19.90;3.78;;;;;;;6.51;71.05;98979.44;10330703;28;20054;-81
2022/11/24 00:56:11;;;;;;;16.40;3.40;;;;;;;6.57;70.78;98977.28;10313511;28;20049;-81
2022/11/24 01:01:21;;;;;;;25.35;4.63;;;;;;;6.50;71.03;98983.78;10315259;28;20066;-81
2022/11/24 01:06:25;;;;;;;19.00;3.67;;;;;;;6.51;70.90;98998.44;10313807;28;20050;-81
2022/11/24 01:16:53;;;;;;;23.58;3.80;;;;;;;6.53;71.19;99029.53;10313412;28;20054;-81
2022/11/24 01:21:55;;;;;;;21.27;4.20;;;;;;;6.58;70.89;99032.69;10313735;28;20400;-81
2022/11/24 01:26:56;;;;;;;22.25;3.75;;;;;;;6.59;70.57;99035.22;10314167;28;20065;-81
2022/11/24 01:31:58;;;;;;;20.80;3.92;;;;;;;6.54;70.75;99029.44;10312891;28;20054;-81
2022/11/24 01:37:00;;;;;;;22.30;3.60;;;;;;;6.61;70.50;99024.72;10312871;28;20522;-81
2022/11/24 01:42:01;;;;;;;20.05;3.40;;;;;;;6.61;70.66;99046.34;10313026;28;20058;-81
2022/11/24 01:47:29;;;;;;;22.88;4.18;;;;;;;6.61;70.74;99050.72;10313457;28;20054;-81
2022/11/24 01:52:39;;;;;;;17.02;3.92;;;;;;;6.68;70.37;99046.81;10314168;28;20038;-81
2022/11/24 01:57:50;;;;;;;25.48;4.00;;;;;;;6.76;70.47;99049.81;10312743;28;20065;-80
2022/11/24 02:02:53;;;;;;;23.05;4.30;;;;;;;6.89;69.88;99058.56;10310286;28;20046;-81
2022/11/24 02:07:59;;;;;;;23.15;3.38;;;;;;;7.09;69.77;99056.47;10309986;28;20046;-81
2022/11/24 02:13:01;;;;;;;21.40;3.72;;;;;;;7.24;69.63;99052.13;10312247;28;20061;-81
2022/11/24 02:18:03;;;;;;;25.13;4.10;;;;;;;7.31;69.50;99039.56;10327927;28;21083;-81
2022/11/24 02:23:28;;;;;;;21.73;3.28;;;;;;;7.20;69.30;99043.66;10312869;28;20046;-81
2022/11/24 02:28:30;;;;;;;18.02;3.33;;;;;;;7.16;69.60;99062.16;10302798;28;20046;-81
2022/11/24 02:33:33;;;;;;;17.50;3.80;;;;;;;7.21;69.32;99060.09;10324421;28;20046;-81
2022/11/24 02:38:35;;;;;;;20.50;4.03;;;;;;;7.22;69.31;99047.94;10326807;28;20053;-81
2022/11/24 02:43:46;;;;;;;21.15;4.70;;;;;;;7.17;69.07;99056.84;10312368;28;20054;-81
2022/11/24 02:48:48;;;;;;;19.40;3.38;;;;;;;7.14;69.20;99067.41;10318326;28;20050;-81
2022/11/24 02:53:49;;;;;;;21.45;3.80;;;;;;;7.08;69.24;99072.97;10310515;28;20420;-81
2022/11/24 02:58:51;;;;;;;16.48;3.30;;;;;;;7.01;69.18;99073.44;10317087;28;20062;-81
2022/11/24 03:03:52;;;;;;;22.90;4.00;;;;;;;6.92;69.42;99077.41;10315575;28;20057;-81
2022/11/24 03:08:54;;;;;;;28.80;3.88;;;;;;;6.93;69.20;99084.28;10315785;28;20050;-81
2022/11/24 03:13:56;;;;;;;17.40;3.72;;;;;;;6.90;69.49;99076.66;10317559;28;20073;-81
2022/11/24 03:18:57;;;;;;;23.58;4.10;;;;;;;6.96;69.49;99072.84;10328329;28;20062;-81
2022/11/24 03:23:59;;;;;;;21.08;3.80;;;;;;;7.00;69.29;99071.75;10322629;28;20069;-81
2022/11/24 03:29:01;;;;;;;20.27;3.45;;;;;;;6.98;69.15;99071.00;10323252;28;20416;-81
2022/11/24 03:40:35;;;;;;;19.40;3.92;;;;;;;6.89;69.20;99087.16;10324635;28;20042;-81
2022/11/24 03:45:37;;;;;;;21.63;3.60;;;;;;;6.92;69.18;99092.16;10324836;28;20046;-81
2022/11/24 03:50:57;;;;;;;18.05;3.45;;;;;;;7.02;69.49;99104.53;10323610;28;20530;-81
2022/11/24 03:56:00;;;;;;;22.95;3.50;;;;;;;7.08;69.27;99098.16;10331078;28;20063;-80
2022/11/24 04:01:02;;;;;;;24.98;4.05;;;;;;;7.05;69.09;99104.38;10321961;28;20050;-81
2022/11/24 04:06:04;;;;;;;18.83;3.47;;;;;;;7.09;69.04;99102.44;10333295;28;20534;-81
2022/11/24 04:11:06;;;;;;;22.30;3.85;;;;;;;7.13;69.07;99111.72;10315929;28;20050;-81
2022/11/24 04:16:08;;;;;;;23.88;3.47;;;;;;;7.19;69.31;99114.81;10316695;28;20054;-81
2022/11/24 04:21:09;;;;;;;24.13;4.60;;;;;;;7.30;69.10;99116.78;10314198;28;20062;-81
2022/11/24 04:26:12;;;;;;;25.05;3.88;;;;;;;7.45;68.94;99115.84;10315924;28;20649;-80
2022/11/24 04:31:14;;;;;;;31.77;4.40;;;;;;;7.57;68.65;99114.28;10316400;28;20054;-81
2022/11/24 04:36:15;;;;;;;25.15;4.05;;;;;;;7.56;68.85;99123.00;10315753;28;20038;-81
2022/11/24 04:41:17;;;;;;;27.48;4.10;;;;;;;7.53;68.55;99118.00;10312694;28;20448;-81
2022/11/24 04:46:19;;;;;;;30.92;4.38;;;;;;;7.56;68.74;99123.00;10315312;28;20058;-81
2022/11/24 04:51:21;;;;;;;21.70;3.67;;;;;;;7.66;68.74;99114.56;10315554;28;20046;-81
2022/11/24 04:56:22;;;;;;;29.30;4.10;;;;;;;7.74;68.44;99133.16;10313183;28;20058;-81
2022/11/24 05:01:24;;;;;;;26.20;4.28;;;;;;;7.84;68.42;99147.28;10312981;28;20057;-81
2022/11/24 05:06:26;;;;;;;21.55;3.85;;;;;;;7.92;68.29;99154.59;10314697;28;20061;-81
2022/11/24 05:11:28;;;;;;;27.80;4.07;;;;;;;8.01;68.08;99151.47;10313099;28;20058;-81
2022/11/24 05:16:29;;;;;;;26.95;4.57;;;;;;;7.93;67.83;99167.56;10322181;28;20054;-81
2022/11/24 05:21:31;;;;;;;20.75;3.75;;;;;;;7.82;67.93;99172.56;10313255;28;20093;-81
2022/11/24 05:26:34;;;;;;;27.75;4.55;;;;;;;7.75;67.96;99184.25;10311592;28;20065;-81
2022/11/24 05:31:36;;;;;;;27.20;4.07;;;;;;;7.79;68.00;99183.16;10311717;28;20050;-81
2022/11/24 05:36:52;;;;;;;30.17;4.20;;;;;;;7.78;68.27;99184.09;10313840;28;20144;-81
2022/11/24 05:41:54;;;;;;;26.55;3.97;;;;;;;7.71;68.19;99181.97;10313943;28;20054;-81
2022/11/24 05:46:56;;;;;;;24.60;3.92;;;;;;;7.61;68.44;99179.03;10328951;28;20058;-82
2022/11/24 05:51:57;;;;;;;30.40;4.70;;;;;;;7.60;68.45;99190.41;10311323;28;20065;-81
2022/11/24 05:56:59;;;;;;;29.00;4.30;;;;;;;7.57;68.66;99190.56;10319249;28;20062;-81
2022/11/24 06:02:01;;;;;;;28.23;4.80;;;;;;;7.55;68.69;99202.00;10318140;28;20058;-81
2022/11/24 06:07:05;;;;;;;29.70;4.32;;;;;;;7.54;68.69;99202.94;10313102;28;20046;-81
2022/11/24 06:12:09;;;;;;;28.25;4.45;;;;;;;7.55;68.79;99205.44;10311458;28;20058;-81
2022/11/24 06:17:11;;;;;;;22.25;3.95;;;;;;;7.56;68.67;99216.69;10319857;28;20054;-81
2022/11/24 06:22:13;;;;;;;31.10;4.25;;;;;;;7.57;68.74;99208.78;10313872;28;20060;-81
2022/11/24 06:27:15;;;;;;;24.58;5.25;;;;;;;7.61;68.96;99215.47;10310890;28;20073;-81
2022/11/24 06:32:18;;;;;;;25.92;4.57;;;;;;;7.75;68.81;99217.28;10306650;28;20062;-81
2022/11/24 06:37:21;;;;;;;22.00;4.10;;;;;;;7.84;68.53;99221.91;10307931;28;20058;-82
2022/11/24 06:42:24;;;;;;;25.05;4.55;;;;;;;7.90;68.52;99219.78;10315857;28;20054;-81
2022/11/24 06:47:27;;;;;;;26.02;4.55;;;;;;;7.95;68.50;99224.72;10324780;28;20054;-81
2022/11/24 06:52:31;;;;;;;30.15;4.90;;;;;;;7.97;68.51;99231.53;10331464;28;20532;-82
2022/11/24 06:57:34;;;;;;;28.73;5.00;;;;;;;7.96;68.42;99227.25;10316901;28;20058;-82
2022/11/24 07:02:36;;;;;;;37.60;4.72;;;;;;;8.03;68.39;99235.53;10320238;28;20054;-82
2022/11/24 07:07:45;;;;;;;30.38;4.60;;;;;;;8.09;68.37;99231.69;10316443;28;20077;-82
2022/11/24 07:12:48;;;;;;;33.42;4.28;;;;;;;8.04;68.49;99235.44;10326067;28;20050;-82
2022/11/24 07:17:50;;;;;;;21.75;3.97;;;;;;;8.04;68.45;99242.38;10312062;28;20397;-82
2022/11/24 07:22:56;;;;;;;27.95;4.68;;;;;;;8.04;68.17;99238.03;10305044;28;20050;-82
2022/11/24 07:27:58;;;;;;;20.65;4.22;;;;;;;8.07;68.20;99246.59;10331764;28;20880;-81
2022/11/24 07:33:01;;;;;;;23.20;4.20;;;;;;;8.09;67.97;99250.78;10310778;28;21219;-82
2022/11/24 07:38:03;;;;;;;24.88;3.90;;;;;;;8.02;68.16;99270.28;10318970;28;20073;-81
2022/11/24 07:43:04;;;;;;;25.85;4.82;;;;;;;8.10;67.86;99285.47;10315047;28;20061;-82
2022/11/24 07:48:06;;;;;;;20.65;4.07;;;;;;;8.15;67.38;99294.72;10317528;28;20058;-81
2022/11/24 07:53:08;;;;;;;34.00;6.32;;;;;;;8.20;67.24;99299.66;10318379;28;20519;-81
2022/11/24 07:58:09;;;;;;;18.45;3.92;;;;;;;8.23;67.14;99308.13;10317254;28;20058;-81
2022/11/24 08:03:11;;;;;;;21.40;3.72;;;;;;;8.37;66.69;99309.88;10323267;28;20054;-81
2022/11/24 08:08:13;;;;;;;19.83;3.97;;;;;;;8.48;66.23;99305.72;10314729;28;20061;-81
2022/11/24 08:13:14;;;;;;;17.30;3.30;;;;;;;8.46;65.73;99319.75;10316741;28;20424;-81
2022/11/24 08:18:16;;;;;;;14.23;3.10;;;;;;;8.46;65.82;99330.19;10318159;28;20051;-82
2022/11/24 08:23:18;;;;;;;18.45;3.47;;;;;;;8.73;65.61;99339.75;10315217;28;20121;-81
2022/11/24 08:28:20;;;;;;;20.08;3.60;;;;;;;8.92;65.15;99349.03;10317226;28;20066;-81
2022/11/24 08:33:21;;;;;;;18.48;3.38;;;;;;;8.69;65.41;99348.69;10315340;28;20054;-81
2022/11/24 08:38:23;;;;;;;19.25;2.95;;;;;;;8.74;65.67;99351.88;10316371;28;20051;-81
2022/11/24 08:43:25;;;;;;;14.05;3.00;;;;;;;8.98;65.34;99365.16;10316215;28;20058;-81
2022/11/24 08:48:27;;;;;;;16.65;3.40;;;;;;;9.02;64.99;99368.41;10317089;28;20061;-81
2022/11/24 08:53:28;;;;;;;21.20;3.22;;;;;;;9.11;65.38;99378.28;10320066;28;20074;-81
2022/11/24 08:58:31;;;;;;;19.17;3.20;;;;;;;9.12;64.85;99379.94;10324540;28;20057;-81
2022/11/24 09:03:33;;;;;;;15.48;2.90;;;;;;;9.03;64.92;99386.59;10330586;28;20050;-81
2022/11/24 09:08:36;;;;;;;12.38;2.58;;;;;;;8.81;65.43;99396.66;10331902;28;20058;-82
2022/11/24 09:13:38;;;;;;;14.27;2.80;;;;;;;8.97;65.51;99405.22;10314617;28;20053;-81
2022/11/24 09:18:40;;;;;;;9.63;2.55;;;;;;;9.00;65.57;99412.84;10312865;28;20065;-82
2022/11/24 09:23:43;;;;;;;10.32;2.72;;;;;;;9.05;65.39;99420.38;10310981;28;20053;-81
2022/11/24 09:28:45;;;;;;;14.40;2.70;;;;;;;9.10;65.02;99428.75;10313687;28;20516;-81
2022/11/24 09:33:47;;;;;;;12.73;2.90;;;;;;;9.23;65.04;99429.69;10312459;28;20054;-81
2022/11/24 09:38:51;;;;;;;11.68;2.30;;;;;;;9.09;64.29;99434.91;10305686;28;20519;-82
2022/11/24 09:44:24;;;;;;;15.07;3.13;;;;;;;8.81;64.32;99438.38;10309609;28;20050;-82
2022/11/24 09:49:57;;;;;;;13.27;2.83;;;;;;;8.87;64.14;99442.38;10303836;28;20061;-81
2022/11/24 09:55:01;;;;;;;10.23;2.28;;;;;;;8.81;64.53;99448.81;10308068;28;20061;-81
2022/11/24 10:00:12;;;;;;;12.50;3.03;;;;;;;8.82;63.94;99450.47;10316779;28;20054;-82
2022/11/24 10:05:31;;;;;;;10.95;2.85;;;;;;;8.71;64.02;99460.69;10303028;28;20519;-82
2022/11/24 10:10:50;;;;;;;10.07;2.60;;;;;;;8.74;64.04;99457.91;10308429;28;20061;-82
2022/11/24 10:16:11;;;;;;;10.95;2.47;;;;;;;8.74;63.41;99478.78;10303821;28;20042;-81
2022/11/24 10:21:43;;;;;;;14.68;2.63;;;;;;;8.94;63.58;99460.16;10310268;28;20065;-81
2022/11/24 10:27:14;;;;;;;14.23;2.65;;;;;;;9.04;61.85;99476.09;10295868;28;20421;-82
2022/11/24 10:32:35;;;;;;;;;;;;;;;8.83;63.33;99483.44;10303924;28;20619;-81
2022/11/24 10:38:17;;;;;;;14.85;2.92;;;;;;;9.27;61.71;99476.38;10311857;28;19930;-81
2022/11/24 10:43:20;;;;;;;14.25;3.47;;;;;;;9.61;61.90;99475.94;10311245;28;20415;-82
2022/11/24 10:48:36;;;;;;;15.57;5.00;;;;;;;10.06;61.26;99471.34;10299797;28;20046;-82
2022/11/24 10:53:44;;;;;;;12.57;3.60;;;;;;;10.24;59.26;99484.06;10307874;28;20059;-82
2022/11/24 10:58:48;;;;;;;18.90;5.00;;;;;;;10.42;59.95;99488.09;10316508;28;20050;-82
2022/11/24 11:10:20;;;;;;;11.73;2.72;;;;;;;10.40;57.41;99494.34;10299459;28;20046;-82
2022/11/24 11:15:30;;;;;;;10.68;2.70;;;;;;;10.39;57.53;99492.69;10303013;28;20061;-82
2022/11/24 11:20:38;;;;;;;13.93;2.70;;;;;;;10.05;56.60;99511.50;10307255;28;20050;-82
2022/11/24 11:25:42;;;;;;;10.65;2.50;;;;;;;10.17;57.51;99505.47;10305747;28;20065;-82
2022/11/24 11:31:04;;;;;;;9.50;2.20;;;;;;;10.20;56.77;99520.94;10308118;28;20803;-83
2022/11/24 11:36:26;;;;;;;13.18;2.78;;;;;;;10.11;57.19;99524.16;10305818;28;20117;-82
2022/11/24 11:41:35;;;;;;;11.65;2.75;;;;;;;10.22;56.34;99524.28;10329548;28;20055;-82
2022/11/24 11:46:57;;;;;;;11.02;2.60;;;;;;;10.22;56.44;99526.91;10320347;28;20058;-82
2022/11/24 11:52:21;;;;;;;9.93;2.33;;;;;;;10.30;56.82;99530.72;10314408;28;20054;-82
2022/11/24 11:58:03;;;;;;;11.20;2.55;;;;;;;10.20;55.92;99534.00;10328047;28;20480;-83
2022/11/24 12:03:31;;;;;;;11.73;2.70;;;;;;;10.53;56.73;99526.59;10314491;28;20421;-84
2022/11/24 12:08:55;;;;;;;12.52;2.97;;;;;;;10.52;55.55;99524.94;10310809;28;20046;-82
2022/11/24 12:14:42;;;;;;;10.98;2.65;;;;;;;10.56;55.40;99529.03;10313537;28;20054;-82
2022/11/24 12:20:01;;;;;;;9.93;2.30;;;;;;;10.35;55.94;99544.34;10329805;28;20057;-82
2022/11/24 12:25:38;;;;;;;11.48;2.63;;;;;;;10.11;56.41;99539.84;10310599;28;20761;-82
2022/11/24 12:31:01;;;;;;;11.02;2.50;;;;;;;9.82;56.55;99549.53;10307475;28;20057;-84
2022/11/24 12:36:30;;;;;;;14.95;3.22;;;;;;;9.79;56.04;99549.69;10311438;28;20046;-83
2022/11/24 12:41:57;;;;;;;12.55;2.63;;;;;;;9.56;56.11;99551.09;10321129;28;20057;-82
2022/11/24 12:47:25;;;;;;;12.32;2.90;;;;;;;9.45;57.08;99552.69;10300910;28;20058;-82
2022/11/24 12:52:43;;;;;;;10.77;2.47;;;;;;;9.53;56.05;99556.50;10311380;28;20065;-83
2022/11/24 12:58:02;;;;;;;14.82;3.33;;;;;;;9.62;56.53;99557.72;10308970;28;20047;-82
2022/11/24 13:03:42;;;;;;;16.17;3.90;;;;;;;9.65;56.07;99557.53;10327073;28;20120;-82
2022/11/24 13:08:47;;;;;;;13.23;2.60;;;;;;;9.87;56.60;99554.47;10323906;28;20056;-82
2022/11/24 13:14:01;;;;;;;10.52;3.50;;;;;;;9.76;55.83;99559.50;10306727;28;20050;-82
2022/11/24 13:19:13;;;;;;;12.80;4.80;;;;;;;9.84;56.09;99562.47;10308101;28;20524;-82
2022/11/24 13:24:17;;;;;;;14.25;5.32;;;;;;;10.12;55.63;99573.72;10312622;28;20046;-82
2022/11/24 13:29:27;;;;;;;12.73;2.50;;;;;;;10.20;54.83;99567.97;10307802;28;20054;-82
2022/11/24 13:34:37;;;;;;;10.30;2.30;;;;;;;9.85;54.43;99566.78;10308948;28;20148;-83
2022/11/24 13:39:48;;;;;;;;;;;;;;;9.80;54.80;99569.69;10310358;28;20058;-82
2022/11/24 13:45:29;;;;;;;9.82;3.05;;;;;;;10.09;54.70;99570.47;10304218;28;19940;-83
2022/11/24 13:50:50;;;;;;;11.90;2.60;;;;;;;10.15;54.03;99573.53;10302445;28;20496;-82
2022/11/24 13:56:07;;;;;;;8.05;2.40;;;;;;;10.00;53.99;99578.88;10297762;28;20560;-83
2022/11/24 14:01:11;;;;;;;13.18;2.65;;;;;;;9.99;54.33;99593.69;10315234;28;20054;-83
2022/11/24 14:06:38;;;;;;;8.85;2.55;;;;;;;10.19;53.79;99593.31;10296853;28;20057;-84
2022/11/24 14:11:43;;;;;;;14.07;3.33;;;;;;;10.40;54.38;99589.28;10309927;28;20508;-85
2022/11/24 14:17:15;;;;;;;12.20;3.13;;;;;;;10.37;52.58;99588.66;10298951;28;20060;-82
2022/11/24 14:22:26;;;;;;;10.63;2.45;;;;;;;10.27;53.22;99590.19;10305877;28;20057;-81
2022/11/24 14:27:32;;;;;;;16.63;3.38;;;;;;;10.07;54.21;99591.47;10305060;28;20483;-82
2022/11/24 14:32:36;;;;;;;11.00;2.33;;;;;;;9.92;54.63;99599.41;10306737;28;20056;-81
2022/11/24 14:37:52;;;;;;;12.40;2.60;;;;;;;9.75;54.97;99595.22;10303600;28;20133;-82
2022/11/24 14:42:56;;;;;;;12.55;2.72;;;;;;;9.64;54.72;99597.63;10304087;28;20088;-82
2022/11/24 14:48:15;;;;;;;15.60;2.78;;;;;;;9.51;55.45;99597.53;10304265;28;20054;-81
2022/11/24 14:53:23;;;;;;;8.77;2.83;;;;;;;9.43;55.88;99604.16;10302863;28;20062;-81
2022/11/24 14:58:33;;;;;;;13.83;2.93;;;;;;;9.21;56.39;99606.34;10302456;28;20047;-81
2022/11/24 15:03:46;;;;;;;14.05;2.80;;;;;;;9.09;56.76;99618.38;10305663;28;20046;-81
2022/11/24 15:08:49;;;;;;;12.75;3.13;;;;;;;9.09;57.06;99613.16;10318827;28;20084;-81
2022/11/24 15:13:56;;;;;;;18.80;3.70;;;;;;;8.97;56.89;99616.47;10315500;28;20050;-81
2022/11/24 15:19:00;;;;;;;12.38;3.25;;;;;;;8.85;57.11;99622.41;10308409;28;20054;-81
2022/11/24 15:24:24;;;;;;;12.80;2.90;;;;;;;8.68;57.39;99620.75;10330913;28;20046;-81
2022/11/24 15:29:26;;;;;;;14.25;3.13;;;;;;;8.55;57.88;99629.34;10313461;28;20526;-82
2022/11/24 15:34:27;;;;;;;13.50;2.70;;;;;;;8.42;58.08;99634.41;10313915;28;20077;-81
2022/11/24 15:39:31;;;;;;;12.15;2.80;;;;;;;8.26;58.67;99637.94;10314811;28;20061;-81
2022/11/24 15:44:35;;;;;;;10.63;3.65;;;;;;;8.10;59.03;99650.09;10331199;28;20042;-80
2022/11/24 15:49:37;;;;;;;16.52;4.47;;;;;;;8.09;59.02;99651.84;10333336;28;20065;-81
2022/11/24 15:54:39;;;;;;;12.73;2.80;;;;;;;7.97;59.20;99650.75;10316868;28;20129;-80
2022/11/24 15:59:41;;;;;;;13.00;2.92;;;;;;;7.85;59.50;99658.38;10317318;28;20058;-80
2022/11/24 16:04:42;;;;;;;10.40;2.67;;;;;;;7.73;59.93;99654.63;10318305;28;20053;-81
2022/11/24 16:09:44;;;;;;;13.40;4.07;;;;;;;7.64;59.90;99655.13;10316687;28;21078;-80
2022/11/24 16:14:46;;;;;;;14.88;3.42;;;;;;;7.45;60.65;99664.78;10315554;28;20054;-80
2022/11/24 16:19:47;;;;;;;13.35;3.40;;;;;;;7.34;60.63;99664.50;10316623;28;20054;-81
2022/11/24 16:25:02;;;;;;;15.15;3.70;;;;;;;7.20;61.07;99680.78;10316919;28;20416;-81
2022/11/24 16:30:07;;;;;;;13.50;3.63;;;;;;;7.12;61.17;99682.94;10316759;28;20058;-80
2022/11/24 16:35:08;;;;;;;14.07;3.83;;;;;;;7.06;61.24;99685.03;10330719;28;20496;-80
2022/11/24 16:40:10;;;;;;;18.75;3.55;;;;;;;6.90;61.42;99681.47;10332780;28;20054;-81
2022/11/24 16:45:12;;;;;;;11.27;2.65;;;;;;;6.72;61.58;99683.19;10316420;28;20061;-80
2022/11/24 16:50:14;;;;;;;15.50;3.67;;;;;;;6.55;61.86;99690.13;10316301;28;20050;-81
2022/11/24 16:55:16;;;;;;;13.73;3.38;;;;;;;6.45;62.22;99684.50;10314770;28;20055;-80
2022/11/24 17:00:18;;;;;;;16.65;3.88;;;;;;;6.50;62.85;99690.34;10312137;28;20503;-81
2022/11/24 17:05:19;;;;;;;17.45;4.53;;;;;;;6.44;62.85;99690.63;10309602;28;20519;-80
2022/11/24 17:10:21;;;;;;;21.48;7.82;;;;;;;6.25;63.43;99685.44;10314358;28;20061;-79
2022/11/24 17:15:23;;;;;;;19.85;6.78;;;;;;;6.13;63.79;99690.31;10328566;28;20761;-80
2022/11/24 17:20:36;;;;;;;23.15;6.82;;;;;;;6.06;64.40;99697.53;10306031;28;20058;-80
2022/11/24 17:25:37;;;;;;;22.67;7.18;;;;;;;5.95;64.51;99707.56;10304685;28;20122;-80
2022/11/24 17:30:39;;;;;;;22.30;8.20;;;;;;;5.95;64.40;99714.50;10317570;28;20054;-79
2022/11/24 17:35:43;;;;;;;26.75;7.85;;;;;;;5.87;64.31;99707.06;10304779;28;20221;-79
2022/11/24 17:40:49;;;;;;;24.75;7.53;;;;;;;5.75;65.08;99712.78;10305781;28;20054;-79
2022/11/24 17:45:55;;;;;;;28.38;10.23;;;;;;;5.74;65.21;99718.88;10299981;28;20046;-79
2022/11/24 17:51:06;;;;;;;24.83;11.27;;;;;;;5.67;65.95;99712.28;10296936;28;20176;-80
2022/11/24 17:56:15;;;;;;;25.63;9.60;;;;;;;5.70;65.66;99719.06;10312850;28;20133;-79
2022/11/24 18:01:18;;;;;;;19.92;7.45;;;;;;;5.68;65.72;99716.53;10297477;28;20061;-79
2022/11/24 18:06:23;;;;;;;17.17;4.80;;;;;;;5.59;66.28;99719.56;10305462;28;20468;-79
2022/11/24 18:11:30;;;;;;;18.48;5.15;;;;;;;5.55;66.08;99720.59;10301265;28;20054;-79
2022/11/24 18:16:33;;;;;;;19.63;6.78;;;;;;;5.55;66.06;99731.78;10306881;28;20049;-79
2022/11/24 18:21:36;;;;;;;20.23;7.85;;;;;;;5.52;65.98;99736.28;10305239;28;20046;-80
2022/11/24 18:26:40;;;;;;;16.80;4.78;;;;;;;5.49;66.06;99736.41;10323022;28;20129;-80
2022/11/24 18:31:42;;;;;;;15.27;7.03;;;;;;;5.44;65.72;99735.75;10299546;28;20054;-79
2022/11/24 18:36:50;;;;;;;20.80;7.35;;;;;;;5.19;66.09;99738.50;10305870;28;20046;-80
2022/11/24 18:41:53;;;;;;;21.85;8.20;;;;;;;5.19;66.37;99737.66;10307212;28;20125;-79
2022/11/24 18:46:56;;;;;;;22.85;9.05;;;;;;;5.29;66.21;99738.97;10315222;28;20058;-79
2022/11/24 18:51:58;;;;;;;27.88;11.10;;;;;;;5.35;66.10;99734.38;10316505;28;20105;-79
2022/11/24 18:57:00;;;;;;;25.95;9.55;;;;;;;5.40;66.16;99734.19;10332434;28;20058;-79
2022/11/24 19:02:04;;;;;;;20.55;8.63;;;;;;;5.36;66.14;99737.81;10312249;28;20432;-79
2022/11/24 19:07:06;;;;;;;25.45;9.25;;;;;;;5.32;65.80;99728.47;10313373;28;20081;-79
2022/11/24 19:12:07;;;;;;;24.17;11.68;;;;;;;5.25;65.88;99724.44;10330102;28;20069;-79
2022/11/24 19:17:11;;;;;;;30.77;10.77;;;;;;;5.01;65.62;99717.69;10333583;28;20046;-79
2022/11/24 19:22:14;;;;;;;30.05;10.55;;;;;;;4.72;66.37;99710.25;10321373;28;20149;-79
2022/11/24 19:27:19;;;;;;;24.95;9.23;;;;;;;4.67;66.95;99721.63;10325901;28;20050;-79
2022/11/24 19:32:23;;;;;;;28.20;9.73;;;;;;;4.66;66.52;99725.09;10326204;28;20047;-80
2022/11/24 19:37:29;;;;;;;29.15;11.68;;;;;;;4.60;67.28;99733.13;10314911;28;20054;-79
2022/11/24 19:42:32;;;;;;;27.80;12.23;;;;;;;4.58;66.88;99734.06;10309608;28;20909;-79
2022/11/24 19:47:34;;;;;;;26.63;11.45;;;;;;;4.55;66.93;99745.41;10312033;28;20069;-79
2022/11/24 19:52:36;;;;;;;26.80;11.43;;;;;;;4.52;67.12;99742.06;10314038;28;20157;-79
2022/11/24 19:57:38;;;;;;;35.03;15.40;;;;;;;4.57;67.04;99735.84;10321012;28;20054;-79
2022/11/24 20:02:39;;;;;;;31.90;16.63;;;;;;;4.59;67.20;99738.38;10319153;28;20066;-79
2022/11/24 20:07:41;;;;;;;29.75;12.77;;;;;;;4.64;67.39;99739.00;10333789;28;20074;-79
2022/11/24 20:12:43;;;;;;;34.90;13.38;;;;;;;4.69;67.20;99731.94;10317377;28;20104;-79
2022/11/24 20:17:45;;;;;;;26.30;12.57;;;;;;;4.72;67.18;99734.38;10311616;28;20050;-79
2022/11/24 20:22:47;;;;;;;29.13;11.82;;;;;;;4.80;67.11;99744.47;10328759;28;20058;-80
2022/11/24 20:27:50;;;;;;;27.38;10.88;;;;;;;4.80;67.34;99739.28;10311941;28;20047;-78
2022/11/24 20:32:52;;;;;;;21.75;9.88;;;;;;;4.76;67.23;99748.91;10310984;28;20676;-79
2022/11/24 20:37:54;;;;;;;21.15;9.88;;;;;;;4.64;66.82;99745.03;10310597;28;20053;-79
2022/11/24 20:42:55;;;;;;;27.77;10.75;;;;;;;4.54;67.33;99754.06;10324125;28;20622;-79
2022/11/24 20:47:57;;;;;;;25.23;12.10;;;;;;;4.49;67.26;99748.25;10319228;28;20065;-79
2022/11/24 20:52:59;;;;;;;29.42;13.15;;;;;;;4.42;67.34;99749.34;10327215;28;20054;-79
2022/11/24 20:58:00;;;;;;;35.10;15.50;;;;;;;4.36;67.10;99751.31;10311338;28;20603;-78
2022/11/24 21:03:02;;;;;;;30.65;15.57;;;;;;;4.25;67.26;99746.53;10321076;28;20940;-78
2022/11/24 21:08:04;;;;;;;31.27;14.32;;;;;;;4.14;67.53;99761.63;10313686;28;20061;-78
2022/11/24 21:13:05;;;;;;;27.65;14.27;;;;;;;4.02;67.66;99758.63;10311136;28;20061;-78
2022/11/24 21:18:07;;;;;;;41.60;17.13;;;;;;;3.94;67.59;99753.75;10317357;28;20046;-78
2022/11/24 21:23:09;;;;;;;45.78;19.52;;;;;;;3.84;67.31;99765.31;10319458;28;20050;-79
2022/11/24 21:28:11;;;;;;;42.05;17.98;;;;;;;3.50;67.66;99770.75;10312840;28;20083;-79
2022/11/24 21:33:13;;;;;;;31.83;15.27;;;;;;;3.36;67.98;99772.09;10309653;28;20054;-78
2022/11/24 21:38:15;;;;;;;35.17;15.65;;;;;;;3.41;68.32;99765.91;10310833;28;20054;-79
2022/11/24 21:43:16;;;;;;;27.65;12.77;;;;;;;3.49;68.46;99770.81;10327421;28;20054;-78
2022/11/24 21:48:18;;;;;;;33.97;15.55;;;;;;;3.59;68.16;99772.19;10311263;28;20066;-79
2022/11/24 21:53:20;;;;;;;33.80;14.93;;;;;;;3.58;67.87;99773.06;10317270;28;20066;-79
2022/11/24 21:58:22;;;;;;;29.27;14.50;;;;;;;3.57;68.01;99768.81;10310174;28;20600;-79
2022/11/24 22:03:24;;;;;;;29.13;14.73;;;;;;;3.46;67.86;99771.75;10326891;28;20058;-78
2022/11/24 22:08:28;;;;;;;27.10;13.48;;;;;;;3.37;68.30;99766.91;10326229;28;20049;-78
2022/11/24 22:13:30;;;;;;;38.42;17.95;;;;;;;3.31;67.85;99759.34;10310506;28;20876;-78
2022/11/24 22:18:34;;;;;;;28.38;13.35;;;;;;;3.30;67.95;99760.25;10320711;28;20053;-78
2022/11/24 22:23:36;;;;;;;33.80;14.82;;;;;;;3.27;68.15;99752.59;10311648;28;20493;-78
2022/11/24 22:28:38;;;;;;;29.92;15.43;;;;;;;3.23;68.09;99750.16;10312461;28;20065;-78
2022/11/24 22:33:40;;;;;;;34.65;14.98;;;;;;;3.16;68.04;99743.50;10307865;28;20059;-78
2022/11/24 22:38:42;;;;;;;32.53;16.50;;;;;;;3.12;68.37;99745.34;10310056;28;21022;-78
2022/11/24 22:43:45;;;;;;;31.35;15.02;;;;;;;3.10;68.40;99733.34;10313907;28;20050;-78
2022/11/24 22:48:48;;;;;;;27.13;14.13;;;;;;;3.03;68.25;99749.06;10318728;28;20097;-78
2022/11/24 22:54:12;;;;;;;32.50;14.82;;;;;;;2.90;67.92;99742.63;10325241;28;21985;-78
2022/11/24 22:59:14;;;;;;;29.52;14.45;;;;;;;2.77;68.08;99749.03;10308216;28;20057;-78
2022/11/24 23:04:15;;;;;;;33.38;13.98;;;;;;;2.74;68.25;99750.88;10309968;28;20061;-78
2022/11/24 23:09:17;;;;;;;39.13;16.05;;;;;;;2.70;68.25;99762.19;10309517;28;20133;-77
2022/11/24 23:14:19;;;;;;;32.92;14.38;;;;;;;2.66;68.46;99753.69;10308697;28;20054;-78
2022/11/24 23:19:20;;;;;;;32.33;13.57;;;;;;;2.70;68.34;99749.28;10311121;28;20055;-78
2022/11/24 23:24:29;;;;;;;34.38;16.58;;;;;;;2.68;68.34;99751.91;10308988;28;20133;-78
2022/11/24 23:29:30;;;;;;;35.45;15.95;;;;;;;2.60;68.31;99753.03;10325837;28;20054;-78
2022/11/24 23:34:32;;;;;;;31.52;17.40;;;;;;;2.60;67.90;99753.88;10312972;28;20527;-78
2022/11/24 23:39:34;;;;;;;216.38;16.58;;;;;;;2.57;67.84;99758.28;10315276;28;20050;-78
2022/11/24 23:44:36;;;;;;;241.07;22.05;;;;;;;2.46;68.01;99760.34;10332852;28;20420;-78
2022/11/24 23:49:37;;;;;;;62.03;15.65;;;;;;;2.45;67.77;99751.75;10314153;28;20042;-78
2022/11/24 23:54:39;;;;;;;17.55;10.02;;;;;;;2.30;67.98;99759.13;10317348;28;20058;-78
2022/11/24 23:59:41;;;;;;;18.05;8.85;;;;;;;2.38;68.12;99755.41;10370304;22;20045;-65
